Airfield :
LOGIN :

Register | Disclaimer

   EN    FR    IT 

 










Legend :    VFR   Marginal VFR   IFR   Intensive IFR   Very Intensive IFR
Visi :
Ceiling :
>= 8 km
>= 3000ft
5 to 8 km
1000 to 3000 ft
1500m to 5 km
500 to 1000 ft
800 to 1500m
200 to 500 ft
< 800m
< 200 ft
Symbols :   Thunderstorms  Fog  Heavy snow  Heavy precipitations  Wind > 20 kt
SIGMETs :     Misc.  Thunderstorms  Icing  Turbulence  Mountain Waves  Volcanic Ashes






- Airport Elevation : 177 ft
- IATA code : BRI


LIBD - Palese Macchie Bari

CURRENT METAR :
  • 201620Z 21007KT CAVOK 15/10 Q1013

EXPIRED METARs :
  • 201550Z 20004KT 170V240 9999 FEW040 16/10 Q1013
  • 201520Z 20005KT 9999 FEW040 16/09 Q1013
  • 201450Z 20003KT 9999 FEW040 16/09 Q1013
  • 201420Z 24004KT 190V270 9999 SCT040 18/09 Q1013
  • 201350Z 23004KT 9999 SCT040 17/08 Q1013

TAF TAF LIBD
Valid from the 20 at 12:00 until the 21 at 12:00 UTC


201100Z 2012/2112 24012KT 9999 SCT040
BECMG 2108/2110 VRB05KT



MET'MAP, your aeronautical weather chart ! - Copyright ORBIFLY December 2007 - Disclaimer

ORBIFLY MET'MAP TEAM :

Programming & Development : Alexandra Zaïnal
Concept & Development : Baudouin d'Aumeries
Co-Development & Prog : Marc-Olivier Méhu
Technical & hardware support : Manuel Goepfert

Contact : metmap@orbifly.com




SOURCES & CREDITS :

   NOAA